createdAt,value
2023-03-11T00:00:41.311Z,78.97
2023-03-11T00:01:41.336Z,77.62
2023-03-11T00:02:41.268Z,76.43
2023-03-11T00:03:41.286Z,76.43
2023-03-11T00:04:41.277Z,77.72
2023-03-11T00:05:41.321Z,77.00
2023-03-11T00:06:41.272Z,78.35
2023-03-11T00:07:41.230Z,76.89
2023-03-11T00:08:41.289Z,77.72
2023-03-11T00:09:41.259Z,76.79
2023-03-11T00:10:41.224Z,76.37
2023-03-11T00:11:41.212Z,78.35
2023-03-11T00:12:41.208Z,78.04
2023-03-11T00:13:41.231Z,77.94
2023-03-11T00:14:41.207Z,77.37
2023-03-11T00:15:41.198Z,76.79
2023-03-11T00:16:41.194Z,76.57
2023-03-11T00:17:41.158Z,85.93
2023-03-11T00:18:41.181Z,79.05
2023-03-11T00:19:41.207Z,75.92
2023-03-11T00:20:41.167Z,78.21
2023-03-11T00:21:41.180Z,80.30
2023-03-11T00:22:41.132Z,77.27
2023-03-11T00:23:41.159Z,75.40
2023-03-11T00:24:41.136Z,76.79
2023-03-11T00:25:41.149Z,76.33
2023-03-11T00:26:41.109Z,75.95
2023-03-11T00:27:41.106Z,77.41
2023-03-11T00:28:41.170Z,77.41
2023-03-11T00:29:41.102Z,77.31
2023-03-11T00:30:41.132Z,78.42
2023-03-11T00:31:41.096Z,76.96
2023-03-11T00:32:41.100Z,77.17
2023-03-11T00:33:41.137Z,77.27
2023-03-11T00:34:41.062Z,78.77
2023-03-11T00:35:41.202Z,75.74
2023-03-11T00:36:41.042Z,76.06
2023-03-11T00:37:41.032Z,77.00
2023-03-11T00:38:41.131Z,78.14
2023-03-11T00:39:41.015Z,75.85
2023-03-11T00:40:41.049Z,78.25
2023-03-11T00:41:41.041Z,75.32
2023-03-11T00:42:41.029Z,76.40
2023-03-11T00:43:41.008Z,77.14
2023-03-11T00:44:40.994Z,78.39
2023-03-11T00:45:40.998Z,77.03
2023-03-11T00:46:40.968Z,78.18
2023-03-11T00:47:40.979Z,76.92
2023-03-11T00:48:40.964Z,78.66
2023-03-11T00:49:40.947Z,79.50
2023-03-11T00:50:40.977Z,78.35
2023-03-11T00:51:40.987Z,77.72
2023-03-11T00:52:40.952Z,78.87
2023-03-11T00:53:40.955Z,79.36
2023-03-11T00:54:40.961Z,78.97
2023-03-11T00:55:40.948Z,76.37
2023-03-11T00:56:40.955Z,76.89
2023-03-11T00:57:40.902Z,79.67
2023-03-11T00:58:40.934Z,77.31
2023-03-11T00:59:40.872Z,78.04
2023-03-11T01:00:40.920Z,80.65
2023-03-11T01:01:40.922Z,75.95
2023-03-11T01:02:40.862Z,76.26
2023-03-11T01:03:40.860Z,78.39
2023-03-11T01:04:40.944Z,76.79
2023-03-11T01:05:40.908Z,76.72
2023-03-11T01:06:45.570Z,77.45
2023-03-11T01:07:42.845Z,77.45
2023-03-11T01:08:40.824Z,79.22
2023-03-11T01:09:40.843Z,79.01
2023-03-11T01:10:40.845Z,77.66
2023-03-11T01:11:40.845Z,78.07
2023-03-11T01:12:40.828Z,78.18
2023-03-11T01:13:40.833Z,79.64
2023-03-11T01:14:40.776Z,79.91
2023-03-11T01:15:40.849Z,81.27
2023-03-11T01:16:40.800Z,78.87
2023-03-11T07:19:14.305Z,75.15
2023-03-11T07:19:47.913Z,77.86
2023-03-11T07:20:47.941Z,76.72
2023-03-11T07:21:47.914Z,75.46
2023-03-11T07:22:47.934Z,76.72
2023-03-11T07:23:47.864Z,74.77
2023-03-11T07:24:47.894Z,76.23
2023-03-11T07:25:47.864Z,75.50
2023-03-11T07:26:47.870Z,76.51
2023-03-11T07:27:47.855Z,76.23
2023-03-11T07:28:47.835Z,78.49
2023-03-11T07:29:47.884Z,76.61
2023-03-11T07:30:47.857Z,78.39
2023-03-11T07:31:47.858Z,75.26
2023-03-11T07:32:47.921Z,77.20
2023-03-11T07:33:47.842Z,75.53
2023-03-11T07:34:47.796Z,76.47
2023-03-11T07:35:47.844Z,73.03
2023-03-11T07:36:47.795Z,73.66
2023-03-11T07:37:47.792Z,73.55
2023-03-11T07:38:47.799Z,79.98
2023-03-11T07:39:47.823Z,76.65
2023-03-11T07:40:47.769Z,80.78
2023-03-11T07:41:47.784Z,74.15
2023-03-11T07:42:47.794Z,73.72
2023-03-11T07:43:47.733Z,72.37
2023-03-11T07:44:47.729Z,74.46
2023-03-11T07:45:47.768Z,74.98
2023-03-11T07:46:47.742Z,80.30
2023-03-11T07:47:47.741Z,77.66
2023-03-11T07:48:47.715Z,69.35
2023-03-11T07:49:47.728Z,68.85
2023-03-11T07:50:47.693Z,70.14
2023-03-11T07:51:47.667Z,75.67
2023-03-11T07:52:47.695Z,74.80
2023-03-11T07:53:47.672Z,74.28
2023-03-11T07:54:47.713Z,82.28
2023-03-11T07:55:47.662Z,71.95
2023-03-11T07:56:47.648Z,69.69
2023-03-11T07:57:47.678Z,70.63
2023-03-11T07:58:48.622Z,70.21
2023-03-11T07:59:47.639Z,68.26
2023-03-11T08:00:47.620Z,68.78
2023-03-11T08:01:47.620Z,69.76
2023-03-11T08:02:47.668Z,69.96
2023-03-11T08:03:47.604Z,70.17
2023-03-11T08:04:47.617Z,69.13
2023-03-11T08:05:47.588Z,69.93
2023-03-11T08:06:47.622Z,67.85
2023-03-11T08:07:47.619Z,69.20
2023-03-11T08:08:47.592Z,68.05
2023-03-11T08:09:47.565Z,67.25
2023-03-11T08:10:47.588Z,69.65
2023-03-11T08:11:49.586Z,69.62
2023-03-11T08:12:47.561Z,69.62
2023-03-11T08:13:47.550Z,68.16
2023-03-11T08:14:47.531Z,68.68
2023-03-11T08:15:47.588Z,71.88
2023-03-11T08:16:47.553Z,68.13
2023-03-11T08:17:47.540Z,69.66
2023-03-11T08:18:47.501Z,67.81
2023-03-11T08:19:47.496Z,65.73
2023-03-11T08:20:47.504Z,67.50
2023-03-11T08:21:47.474Z,65.83
2023-03-11T08:22:57.748Z,67.50
2023-03-11T08:23:49.495Z,68.85
2023-03-11T08:24:47.450Z,68.13
2023-03-11T08:25:47.451Z,67.81
2023-03-11T08:26:47.447Z,67.92
2023-03-11T08:27:47.487Z,68.44
2023-03-11T08:28:47.444Z,69.27
2023-03-11T08:29:47.486Z,65.94
2023-03-11T08:30:47.442Z,65.31
2023-03-11T08:31:47.416Z,67.29
2023-03-11T08:32:47.462Z,65.41
2023-03-11T08:33:47.422Z,65.52
2023-03-11T08:34:47.415Z,67.40
2023-03-11T08:35:47.424Z,67.71
2023-03-11T08:36:47.383Z,68.02
2023-03-11T08:37:47.421Z,68.23
2023-03-11T08:38:47.443Z,69.69
2023-03-11T08:39:47.358Z,67.40
2023-03-11T08:40:47.383Z,63.32
2023-03-11T08:41:47.336Z,67.60
2023-03-11T08:42:47.364Z,66.14
2023-03-11T08:43:47.324Z,67.36
2023-03-11T08:44:47.342Z,67.36
2023-03-11T08:45:47.326Z,67.47
2023-03-11T08:46:47.360Z,68.20
2023-03-11T08:47:47.316Z,67.36
2023-03-11T08:48:47.329Z,67.26
2023-03-11T08:49:47.296Z,65.46
2023-03-11T08:50:54.016Z,65.77
2023-03-11T08:51:49.298Z,62.75
2023-03-11T08:52:47.314Z,63.61
2023-03-11T08:53:47.263Z,64.83
2023-03-11T08:54:47.281Z,63.51
2023-03-11T08:55:47.289Z,64.73
2023-03-11T08:56:47.283Z,62.88
2023-03-11T08:57:47.233Z,65.77
2023-03-11T08:58:47.281Z,64.83
2023-03-11T08:59:47.246Z,65.95
2023-03-11T09:00:47.243Z,64.98
2023-03-11T09:01:47.208Z,61.76
2023-03-11T09:02:47.288Z,61.13
2023-03-11T09:03:47.228Z,63.10
2023-03-11T09:04:47.216Z,63.18
2023-03-11T09:05:47.173Z,63.29
2023-03-11T09:06:48.169Z,59.95
2023-03-11T09:07:47.170Z,61.10
2023-03-11T09:08:47.193Z,62.24
2023-03-11T09:09:47.163Z,60.19
2023-03-11T09:10:47.149Z,60.09
2023-03-11T09:11:47.227Z,61.13
2023-03-11T09:12:47.145Z,62.14
2023-03-11T09:13:47.138Z,62.76
2023-03-11T09:14:47.125Z,59.44
2023-03-11T09:15:47.140Z,59.56
2023-03-11T09:16:47.121Z,62.59
2023-03-11T09:17:47.089Z,60.82
2023-03-11T09:18:47.144Z,60.92
2023-03-11T09:19:47.082Z,62.07
2023-03-11T09:20:47.095Z,63.63
2023-03-11T09:21:47.104Z,62.38
2023-03-11T09:22:47.126Z,61.65
2023-03-11T09:23:47.080Z,63.49
2023-03-11T09:24:47.056Z,65.47
2023-03-11T09:25:47.140Z,69.81
2023-03-11T09:26:47.044Z,66.69
2023-03-11T09:27:47.033Z,62.74
2023-03-11T09:28:47.051Z,61.18
2023-03-11T09:29:47.008Z,60.45
2023-03-11T09:30:47.030Z,62.87
2023-03-11T09:31:47.022Z,60.03
2023-03-11T09:32:47.029Z,61.07
2023-03-11T09:33:46.997Z,60.86
2023-03-11T09:34:46.972Z,60.16
2023-03-11T09:35:47.020Z,60.45
2023-03-11T09:36:46.978Z,60.58
2023-03-11T09:37:46.971Z,58.60
2023-03-11T09:38:46.975Z,57.67
2023-03-11T09:39:46.951Z,61.10
2023-03-11T09:40:47.227Z,65.58
2023-03-11T09:41:57.503Z,62.19
2023-03-11T09:42:48.942Z,59.38
2023-03-11T09:43:46.971Z,57.92
2023-03-11T09:44:46.920Z,58.78
2023-03-11T09:45:46.910Z,60.83
2023-03-11T09:46:46.964Z,62.50
2023-03-11T09:47:46.900Z,60.52
2023-03-11T09:48:46.912Z,57.51
2023-03-11T09:49:46.877Z,56.16
2023-03-11T09:50:46.861Z,61.15
2023-03-11T09:51:46.855Z,58.44
2023-03-11T09:52:46.892Z,58.44
2023-03-11T09:53:46.881Z,55.32
2023-03-11T09:54:46.968Z,59.48
2023-03-11T09:55:46.860Z,55.53
2023-03-11T09:56:46.862Z,57.71
2023-03-11T09:57:46.843Z,57.20
2023-03-11T09:58:46.820Z,58.54
2023-03-11T09:59:46.812Z,58.21
2023-03-11T10:00:46.820Z,59.88
2023-03-11T10:01:46.870Z,56.96
2023-03-11T10:02:46.921Z,57.38
2023-03-11T10:03:46.806Z,54.70
2023-03-11T10:04:46.770Z,55.53
2023-03-11T10:05:46.772Z,54.49
2023-03-11T10:06:46.792Z,55.43
2023-03-11T10:07:46.741Z,57.82
2023-03-11T10:08:46.807Z,57.20
2023-03-11T10:09:46.737Z,57.48
2023-03-11T10:10:46.753Z,56.23
2023-03-11T10:11:46.764Z,55.71
2023-03-11T10:12:46.726Z,56.13
2023-03-11T10:13:46.783Z,55.61
2023-03-11T10:14:46.702Z,58.39
2023-03-11T10:15:46.691Z,58.60
2023-03-11T10:16:46.741Z,57.56
2023-03-11T10:17:46.663Z,55.07
2023-03-11T10:18:46.686Z,55.27
2023-03-11T10:19:46.679Z,59.01
2023-03-11T10:20:46.684Z,58.91
2023-03-11T10:21:46.655Z,56.83
2023-03-11T10:22:46.659Z,59.12
2023-03-11T10:23:46.697Z,55.79
2023-03-11T10:24:46.631Z,57.87
2023-03-11T10:25:46.637Z,56.93
2023-03-11T10:26:46.611Z,56.41
2023-03-11T10:27:46.633Z,56.44
2023-03-11T10:28:46.638Z,57.17
2023-03-11T10:29:46.608Z,55.01
2023-03-11T10:30:46.584Z,56.57
2023-03-11T10:31:46.671Z,57.61
2023-03-11T10:32:46.648Z,57.20
2023-03-11T10:33:47.726Z,57.71
2023-03-11T10:34:47.564Z,56.05
2023-03-11T10:35:46.593Z,57.95
2023-03-11T10:36:46.549Z,57.61
2023-03-11T10:37:49.363Z,58.37
2023-03-11T10:38:47.550Z,59.69
2023-03-11T10:39:46.503Z,57.82
2023-03-11T10:40:46.508Z,58.34
2023-03-11T10:41:46.503Z,57.82
2023-03-11T10:42:46.488Z,56.76
2023-03-11T10:43:46.502Z,58.81
2023-03-11T10:44:46.478Z,57.87
2023-03-11T10:45:46.519Z,56.83
2023-03-11T10:46:46.492Z,56.29
2023-03-11T10:47:46.696Z,56.29
2023-03-11T10:48:46.460Z,55.33
2023-03-11T10:49:46.460Z,58.44
2023-03-11T10:50:46.444Z,56.18
2023-03-11T10:51:46.474Z,57.20
2023-03-11T10:52:46.430Z,56.05
2023-03-11T10:53:46.424Z,55.02
2023-03-11T10:54:46.469Z,55.20
2023-03-11T10:55:46.442Z,51.17
2023-03-11T10:56:46.395Z,52.83
2023-03-11T10:57:46.425Z,56.55
2023-03-11T10:58:46.429Z,58.18
2023-03-11T10:59:46.385Z,56.41
2023-03-11T11:00:46.484Z,55.46
2023-03-11T11:01:46.375Z,52.04
2023-03-11T11:02:46.402Z,55.27
2023-03-11T11:03:46.460Z,53.82
2023-03-11T11:04:46.374Z,52.92
2023-03-11T11:05:46.344Z,54.81
2023-03-11T11:06:46.343Z,55.12
2023-03-11T11:07:46.389Z,54.19
2023-03-11T11:08:46.339Z,54.91
2023-03-11T11:09:46.340Z,56.99
2023-03-11T11:10:46.314Z,57.40
2023-03-11T11:11:46.300Z,55.85
2023-03-11T11:12:46.296Z,56.68
2023-03-11T11:13:46.334Z,55.25
2023-03-11T11:14:46.287Z,57.20
2023-03-11T11:15:46.302Z,54.94
2023-03-11T11:16:46.408Z,53.38
2023-03-11T11:17:46.272Z,55.12
2023-03-11T11:18:48.209Z,55.77
2023-03-11T11:19:46.271Z,56.49
2023-03-11T11:20:46.232Z,55.77
2023-03-11T11:21:46.246Z,53.92
2023-03-11T11:22:46.237Z,55.35
2023-03-11T11:23:46.230Z,54.81
2023-03-11T11:24:46.216Z,55.82
2023-03-11T11:25:46.199Z,54.00
2023-03-11T11:26:46.212Z,56.37
2023-03-11T11:27:46.207Z,54.14
2023-03-11T11:28:46.210Z,52.25
2023-03-11T11:29:46.183Z,49.81
2023-03-11T11:30:46.197Z,51.14
2023-03-11T11:31:46.159Z,52.36
2023-03-11T11:32:47.285Z,52.15
2023-03-11T11:33:46.182Z,50.80
2023-03-11T11:34:46.159Z,54.03
2023-03-11T11:35:46.156Z,52.20
2023-03-11T11:36:46.160Z,53.85
2023-03-11T11:37:46.144Z,56.44
2023-03-11T11:38:46.174Z,53.93
2023-03-11T11:39:46.105Z,52.69
2023-03-11T11:40:46.118Z,54.11
2023-03-11T11:41:46.115Z,52.95
2023-03-11T11:44:38.706Z,52.64
2023-03-11T11:46:32.311Z,48.86
2023-03-11T11:48:25.760Z,52.09
2023-03-11T11:50:19.240Z,51.29
2023-03-11T11:52:12.701Z,51.44
2023-03-11T11:54:06.197Z,55.58
2023-03-11T11:55:59.641Z,51.96
2023-03-11T11:57:53.111Z,54.06
2023-03-11T11:59:46.563Z,56.13
2023-03-11T12:01:40.159Z,54.44
2023-03-11T12:15:54.226Z,49.11
2023-03-11T12:16:28.322Z,49.21
2023-03-11T12:17:28.280Z,50.79
2023-03-11T12:18:28.261Z,52.58
2023-03-11T12:19:28.275Z,52.06
2023-03-11T12:20:28.282Z,54.96
2023-03-11T12:21:28.256Z,55.27
2023-03-11T12:22:28.238Z,54.13
2023-03-11T12:23:28.246Z,52.48
2023-03-11T12:24:28.219Z,53.54
2023-03-11T12:25:28.220Z,54.16
2023-03-11T12:26:28.223Z,53.00
2023-03-11T12:27:28.197Z,54.65
2023-03-11T12:28:28.255Z,48.74
2023-03-11T12:29:28.204Z,49.03
2023-03-11T12:30:28.239Z,51.89
2023-03-11T12:31:28.216Z,50.21
2023-03-11T12:32:28.228Z,48.63
2023-03-11T12:33:28.161Z,45.94
2023-03-11T12:34:28.256Z,44.47
2023-03-11T12:35:28.141Z,46.11
2023-03-11T12:36:29.160Z,45.67
2023-03-11T12:37:28.211Z,43.71
2023-03-11T12:38:28.138Z,45.75
2023-03-11T12:39:28.136Z,45.21
2023-03-11T12:40:28.143Z,45.81
2023-03-11T12:41:28.125Z,45.61
2023-03-11T12:42:28.102Z,48.06
2023-03-11T12:43:28.110Z,46.02
2023-03-11T12:44:28.138Z,44.90
2023-03-11T12:45:28.123Z,45.47
2023-03-11T12:46:28.190Z,47.34
2023-03-11T12:47:28.103Z,46.04
2023-03-11T12:48:28.113Z,49.09
2023-03-11T12:49:28.079Z,50.74
2023-03-11T12:50:28.059Z,50.77
2023-03-11T12:51:28.048Z,50.87
2023-03-11T12:52:28.033Z,50.25
2023-03-11T12:53:28.164Z,51.39
2023-03-11T12:54:28.044Z,50.38
2023-03-11T12:55:28.018Z,48.61
2023-03-11T12:56:28.076Z,50.90
2023-03-11T12:57:27.997Z,49.03
2023-03-11T12:58:28.010Z,49.55
2023-03-11T12:59:28.031Z,51.00
2023-03-11T13:00:28.010Z,50.48
2023-03-11T13:01:27.994Z,53.88
2023-03-11T13:02:28.003Z,51.89
2023-03-11T13:03:27.985Z,51.47
2023-03-11T13:04:27.999Z,49.19
2023-03-11T13:05:27.958Z,47.14
2023-03-11T13:06:27.963Z,48.60
2023-03-11T13:07:27.950Z,45.51
2023-03-11T13:08:27.951Z,46.23
2023-03-11T13:09:29.825Z,46.11
2023-03-11T13:10:27.918Z,46.94
2023-03-11T13:11:27.903Z,47.02
2023-03-11T13:12:27.914Z,47.85
2023-03-11T13:13:27.885Z,45.90
2023-03-11T13:14:27.933Z,47.87
2023-03-11T13:15:27.894Z,49.91
2023-03-11T13:16:27.907Z,52.92
2023-03-11T13:17:28.871Z,51.06
2023-03-11T13:18:27.873Z,51.45
2023-03-11T13:19:27.884Z,48.44
2023-03-11T13:20:27.856Z,47.31
2023-03-11T13:21:27.918Z,49.77
2023-03-11T13:22:27.848Z,49.77
2023-03-11T13:23:27.845Z,49.87
2023-03-11T13:24:27.837Z,48.75
2023-03-11T13:25:27.836Z,48.86
2023-03-11T13:26:27.818Z,50.41
2023-03-11T13:27:27.819Z,49.91
2023-03-11T13:28:27.792Z,47.95
2023-03-11T13:29:27.804Z,48.36
2023-03-11T13:30:27.816Z,48.96
2023-03-11T13:31:27.868Z,49.69
2023-03-11T13:32:27.786Z,51.24
2023-03-11T13:33:27.753Z,49.35
2023-03-11T13:34:27.944Z,48.24
2023-03-11T13:35:27.731Z,48.43
2023-03-11T13:36:27.726Z,47.80
2023-03-11T13:37:27.758Z,47.80
2023-03-11T13:38:27.732Z,50.08
2023-03-11T13:39:27.734Z,49.25
2023-03-11T13:40:27.814Z,50.18
2023-03-11T13:41:28.161Z,47.72
2023-03-11T13:42:27.698Z,50.39
2023-03-11T13:43:27.744Z,48.83
2023-03-11T13:44:27.721Z,52.04
2023-03-11T13:45:27.777Z,49.22
2023-03-11T13:46:27.679Z,47.47
2023-03-11T13:47:27.707Z,49.56
2023-03-11T13:48:27.653Z,48.71
2023-03-11T13:49:27.701Z,49.02
2023-03-11T13:50:27.650Z,46.02
2023-03-11T13:51:27.653Z,48.40
2023-03-11T13:52:27.633Z,45.71
2023-03-11T13:53:27.634Z,47.24
2023-03-11T13:54:27.611Z,46.12
2023-03-11T13:55:27.663Z,47.03
2023-03-11T13:56:27.659Z,47.97
2023-03-11T13:57:27.605Z,45.87
2023-03-11T13:58:27.662Z,45.87
2023-03-11T13:59:27.576Z,46.08
2023-03-11T14:00:27.605Z,45.87
2023-03-11T14:01:27.639Z,47.76
2023-03-11T14:02:27.657Z,45.79
2023-03-11T14:03:27.557Z,44.56
2023-03-11T14:04:27.699Z,47.34
2023-03-11T14:05:27.639Z,46.11
2023-03-11T14:06:27.543Z,48.58
2023-03-11T14:07:27.640Z,48.58
2023-03-11T14:08:27.573Z,47.63
2023-03-11T14:09:27.550Z,47.32
2023-03-11T14:10:27.542Z,46.93
2023-03-11T14:11:27.496Z,45.90
2023-03-11T14:12:27.501Z,45.48
2023-03-11T14:13:27.511Z,49.22
2023-03-11T14:14:27.505Z,49.41
2023-03-11T14:15:27.550Z,47.57
2023-03-11T14:16:27.476Z,48.30
2023-03-11T14:17:27.446Z,47.86
2023-03-11T14:18:27.440Z,46.11
2023-03-11T14:19:27.449Z,45.59
2023-03-11T14:20:27.450Z,47.76
2023-03-11T14:21:27.460Z,47.76
2023-03-11T14:22:27.473Z,45.69
2023-03-11T14:23:28.370Z,46.72
2023-03-11T14:24:27.672Z,48.46
2023-03-11T14:25:27.488Z,46.37
2023-03-11T14:26:27.448Z,46.37
2023-03-11T14:27:27.448Z,44.72
2023-03-11T14:28:27.482Z,45.26
2023-03-11T14:29:27.433Z,45.96
2023-03-11T14:30:28.029Z,46.68
2023-03-11T14:31:27.411Z,47.09
2023-03-11T14:32:27.457Z,45.32
2023-03-11T14:33:27.366Z,44.29
2023-03-11T14:34:27.395Z,46.82
2023-03-11T14:35:28.047Z,45.48
2023-03-11T14:36:27.350Z,46.28
2023-03-11T14:37:27.341Z,45.95
2023-03-11T14:38:27.364Z,44.08
2023-03-11T14:39:27.364Z,43.24
2023-03-11T14:40:27.359Z,44.06
2023-03-11T14:41:27.343Z,46.10
2023-03-11T14:42:27.434Z,45.68
2023-03-11T14:43:27.319Z,44.33
2023-03-11T14:44:27.529Z,44.02
2023-03-11T14:45:27.377Z,43.19
2023-03-11T14:46:27.309Z,43.71
2023-03-11T14:47:27.358Z,43.90
2023-03-11T14:48:27.266Z,42.27
2023-03-11T14:49:27.246Z,42.49
